Turkey City, Pennsylvania
Current Conditions -  °F | °C
As of 8:35 AM on Sunday 23 Nov 2014 (Local Time) from KFKL Reporting Station
Overcast Overcast  
Wind Chill: 37°   Ceiling: 6000
Heat Index: 41°   Visibility: 10mi
Dew Point: 36°   Wind: 6mph
Humidity: 81%   Direction: 180°S
Pressure: 30.08"   Gusts: NA
Location:  41.19°N, 79.61°W
Report Text: KFKL 231335Z AUTO 18005KT 10SM FEW049 BKN060 OVC070 05/02 A3008 RMK AO1
Loading
Personal Weather Stations






























Interactive Weather Map New forecast layout! Learn more

10-Day Weather Forecast

Advertisements
Track Severe Weather on mobile